Nemo, South Dakota
Current Conditions -  °F | °C
As of 5:58 AM on Friday 24 Oct 2014 (Local Time) from KRCA Reporting Station
Clear Clear  
Wind Chill: 41°   Ceiling: Unl
Heat Index: 46°   Visibility: 10mi
Dew Point: 33°   Wind: 9mph
Humidity: 61%   Direction: 320°NW
Pressure: 29.91"   Gusts: NA
Location:  44.19°N, 103.51°W
Report Text: KRCA 241158Z AUTO 32008KT 10SM CLR 08/01 A2991 RMK AO2 VIS 1 RWY13 SLP128 T00760005 10105 20067 53002 $
Loading
Personal Weather Stations






























Interactive Weather Map New forecast layout! Learn more

10-Day Weather Forecast

Advertisements
Track Severe Weather on mobile